• Join FlightAware (Why Join?)
  • Login
  • US Flag 
12:49AM EDT


 

Airport Tracker/Info


-or-


 

Live Flight TrackerFlight Track Log ✈ SWA4843 ✈ 05-Jul-2014 ✈ KBWI - KBOS

Flight Track Log - Related Links

Times and Time Zones

All times are in EDT time to prevent confusion due to time zone crossing. See the SWA4843 flight status page for this flight to view local times or setup timezone preferences in your user account.

Time Position Orientation Groundspeed Altitude Reporting Facility
EDT Latitude Longitude Course Direction KTS MPH feet Rate Location/Type
11:42PM 39.1833 -76.7167 148° Southeast 165 190 2,000  Level Potomac TRACON
11:44PM 39.1128 -76.6589 148° Southeast 217 250 9,600 3,060 Climbing Washington Center
11:45PM 39.1222 -76.5414 84° East 274 315 12,400 2,820 Climbing Washington Center
11:46PM 39.1336 -76.4050 84° East 312 359 15,300 2,820 Climbing Washington Center
11:47PM 39.1492 -76.2661 82° East 361 415 18,000 2,580 Climbing Washington Center
11:48PM 39.1644 -76.1164 82° East 403 464 20,600 2,040 Climbing Washington Center
11:49PM 39.1817 -75.9744 81° East 432 497 22,200 2,040 Climbing Washington Center
11:50PM 39.2319 -75.8356 65° Northeast 425 489 24,700 2,220 Climbing Washington Center
11:52PM 39.3792 -75.6433 45° Northeast 434 499 27,900 2,220 Climbing New York Center
11:53PM 39.4694 -75.5256 45° Northeast 452 520 30,500 2,460 Climbing New York Center
11:54PM 39.5575 -75.4078 46° Northeast 452 520 33,000 2,220 Climbing New York Center
11:55PM 39.6453 -75.2947 45° Northeast 452 520 34,900 960 Climbing New York Center
11:56PM 39.7311 -75.1761 47° Northeast 452 520 35,000  Climbing New York Center
11:57PM 39.8017 -75.0697 49° Northeast 459 528 35,000  Level New York Center
11:58PM 39.9050 -74.9219 48° Northeast 459 528 35,000  Level New York Center
11:59PM 39.9925 -74.7997 47° Northeast 467 537 35,000  Level New York Center
12:00AM 40.1458 -74.5581 50° Northeast 467 537 35,000  Level Boston Center
12:01AM 40.2194 -74.4144 56° Northeast 470 541 35,000  Level Boston Center
12:02AM 40.2936 -74.2736 55° Northeast 471 542 35,000  Level Boston Center
12:03AM 40.3675 -74.1319 56° Northeast 471 542 35,000  Level Boston Center
12:05AM 40.4372 -73.9986 55° Northeast 472 543 35,000  Level Boston Center
12:06AM 40.5131 -73.8569 55° Northeast 472 543 35,000  Level Boston Center
12:07AM 40.5872 -73.7144 56° Northeast 473 544 35,000  Level Boston Center
12:08AM 40.6653 -73.5628 56° Northeast 473 544 35,000  Level Boston Center
12:09AM 40.7344 -73.4272 56° Northeast 473 544 35,000 -240 Level Boston Center
12:10AM 40.8117 -73.2753 56° Northeast 473 544 34,600 -660 Descending Boston Center
12:11AM 40.8847 -73.1342 56° Northeast 472 543 33,700 -960 Descending Boston Center
12:12AM 40.9564 -72.9908 56° Northeast 471 542 32,700 -960 Descending Boston Center
12:13AM 41.0289 -72.8467 56° Northeast 471 542 31,800 -960 Descending Boston Center
12:14AM 41.1014 -72.7014 56° Northeast 471 542 30,800 -1,020 Descending Boston Center
12:15AM 41.1753 -72.5525 57° Northeast 478 550 29,800 -1,020 Descending Boston Center
12:16AM 41.2483 -72.4047 57° Northeast 478 550 28,900 -1,020 Descending Boston Center
12:17AM 41.3247 -72.2492 57° Northeast 481 554 27,800 -1,080 Descending Boston Center
12:18AM 41.3994 -72.0997 56° Northeast 485 558 26,800 -1,020 Descending Boston Center
12:19AM 41.4731 -71.9519 56° Northeast 482 555 25,800 -1,200 Descending Boston Center
12:20AM 41.5533 -71.7831 58° Northeast 476 548 24,400 -2,100 Descending Boston Center
12:21AM 41.6225 -71.6436 56° Northeast 460 529 21,600 -2,760 Descending Boston Center
12:22AM 41.6881 -71.5031 58° Northeast 440 506 18,800 -2,640 Descending Boston Center
12:23AM 41.7492 -71.3731 58° Northeast 419 482 16,200 -2,640 Descending Boston Center
12:24AM 41.8039 -71.2439 60° Northeast 406 467 13,500 -2,640 Descending Boston Center
12:25AM 41.8594 -71.1203 59° Northeast 392 451 11,100 -1,260 Descending Boston Center
12:26AM 41.9275 -71.0172 48° Northeast 374 430 11,000 -60 Descending Boston Center
12:27AM 41.9986 -70.9056 49° Northeast 369 425 11,000 -120 Level Boston Center
12:28AM 42.0572 -70.8142 49° Northeast 340 391 10,800 -1,140 Descending Boston Center
12:29AM 42.1089 -70.7253 52° Northeast 305 351 8,800 -1,860 Descending Boston Center
12:30AM 42.1686 -70.6561 41° Northeast 286 329 7,100 -1,800 Descending Boston Center
12:31AM 42.2361 -70.6108 26° Northeast 276 318 5,200 -1,500 Descending Boston Center
12:32AM 42.3025 -70.5961 North 246 283 4,100 -960 Descending Boston Center
12:33AM 42.3611 -70.6258 339° North 229 264 3,300 -600 Descending Boston Center
12:34AM 42.3772 -70.6958 287° West 201 231 3,000 -180 Descending Boston Center
12:35AM 42.3853 -70.7519 281° West 162 186 3,000 -180 Level Boston Center
12:36AM 42.3919 -70.8081 279° West 154 177 2,700 -660 Descending Boston Center
12:37AM 42.3828 -70.8656 258° West 149 171 1,800 -780 Descending Boston Center
12:38AM 42.3744 -70.9108 256° West 130 150 1,200 -600 Descending Boston Center
12:39AM 42.3669 -70.9522 256° West 118 136 600 -600 Descending Boston Center
12:40AM 42.3597 -71.0014 259° West 119 137 100 -540 Descending Boston Center
12:42AM 42.3500 -71.0000 236° Southwest  Level FlightAware Approximate